Ernest Shackleton — ZDLS1 — position and weather

sailwx.info

Track history (hours):
 
Tides and Currents Weather Stations Pressure Air Temp Water Temp Dewpoint Dewpoint Depression Visibility Wind Speed Wind Dir Waves Ship Positions

Oceanographic research ship Ernest Shackleton (UK/Norway)

Detailed information on ship capabilities available from University of Delaware's Ocean Information Center and ARCUS's ALIAS (Arctic Logistics Information and Support) project.

Last reported at 2015-Mar-02 01:00 UTC. Time now 2015-Mar-02 04:59 UTC.
Position S 65°30' W 026°30'.

Length 80 m; beam 17 m; draft 7.4 m.

Type: Other ship. MMSI: 740357000.

AWS

Barometer 957.6 mb
Air temperature -2.5 ° C
Dewpoint 1.1 ° C

Date/timePositionNaut miles runAvg speedWind from/ knotsBaromVisibWave heightAir tempDewpointWater temp
2015-Mar-02 01:00S 65°30' W 026°30'10 9.6 957.6 -2.5 1.1
2015-Mar-02 00:00S 65°24' W 026°48'2311.7 958.1 -2.3 1.1
2015-Mar-01 22:00S 65°06' W 027°24'10 9.7 958.2 -1.6 0.2
2015-Mar-01 21:00S 65°00' W 027°42'4310.7 958.1 -1.8 0.4
2015-Mar-01 17:00S 64°30' W 028°54'10 9.8 957.1 -2.3 1.2
2015-Mar-01 16:00S 64°24' W 029°12'10 9.8 957.2 -2.3-0.1
2015-Mar-01 15:00S 64°18' W 029°30'1414.3 957.6 -2.2-0.3
2015-Mar-01 14:00S 64°06' W 029°48'8 8.0 957.9 -2.3-0.4
2015-Mar-01 13:00S 64°00' W 030°00'28 9.3 958.2 -2.4-0.1
2015-Mar-01 10:00S 63°42' W 030°48'1010.0 958.7 -2.3-0.2
2015-Mar-01 09:00S 63°36' W 031°06'1010.0 959.0 -2.0-0.2
2015-Mar-01 08:00S 63°30' W 031°24'1010.0 959.4 -1.8 0.1
2015-Mar-01 07:00S 63°24' W 031°42'1010.1 959.4 -1.9 0.8
2015-Mar-01 06:00S 63°18' W 032°00'16 8.1 959.2 -2.1 0.7
2015-Mar-01 04:00S 63°06' W 032°24'1010.1 960.0 -2.6 1.0
2015-Mar-01 03:00S 63°00' W 032°42'5 5.4 960.8 -2.4 0.3
2015-Mar-01 02:00S 63°00' W 032°54'8 8.1 961.5 -2.3 0.4
2015-Mar-01 01:00S 62°54' W 033°06'8 8.1 962.5 -1.9-0.8
2015-Mar-01 00:00S 62°48' W 033°18'15 7.5 963.2 -1.8-0.9
2015-Feb-28 22:00S 62°42' W 033°48'8 8.1 963.6 -1.6-1.6
2015-Feb-28 21:00S 62°36' W 034°00'18 9.2 964.0 -1.6-1.1
2015-Feb-28 19:00S 62°24' W 034°30'8 8.2 964.6 -1.8 0.5
2015-Feb-28 18:00S 62°18' W 034°42'8 8.4 965.0 -2.0 1.1
2015-Feb-28 17:00S 62°18' W 035°00'1010.3 965.7 -1.9 0.4
2015-Feb-28 16:00S 62°12' W 035°18'16 8.2 966.3 -1.9 0.3
2015-Feb-28 14:00S 62°00' W 035°42'1010.4 967.9 -2.1 0.1
2015-Feb-28 13:00S 61°54' W 036°00'1212.3 968.5 -2.5 1.1
2015-Feb-28 12:00S 61°42' W 036°06'1111.4 969.2 -2.3 0.9
2015-Feb-28 11:00S 61°42' W 036°30'17 8.5 970.2 -2.2 0.6
2015-Feb-28 09:00S 61°42' W 037°06'1514.7 970.5 -2.1 0.8
2015-Feb-28 08:00S 61°30' W 037°24'1010.5 970.7 -2.0 0.7
2015-Feb-28 07:00S 61°36' W 037°42'8 8.3 971.2 -2.2 1.2
2015-Feb-28 06:00S 61°42' W 037°54'8 8.3 971.7 -2.3 1.2
2015-Feb-28 05:00S 61°48' W 038°06'26 6.4 972.2 -2.2 0.6
2015-Feb-28 01:00S 61°48' W 039°00'6112.1 973.5 -2.4 1.1
2015-Feb-27 20:00S 61°12' W 040°42'2110.6 969.8 -2.1-0.1
2015-Feb-27 18:00S 61°00' W 041°18'2411.8 970.0 -1.9-1.4
2015-Feb-27 16:00S 60°48' W 042°00'1110.6 971.2 -2.5-0.5
2015-Feb-27 15:00S 60°42' W 042°18'1110.7 971.7 -2.4-1.4
2015-Feb-27 14:00S 60°36' W 042°36'1110.7 972.6 -3.6 2.4
2015-Feb-27 13:00S 60°30' W 042°54'1110.7 973.2 -3.3 0.4
2015-Feb-27 12:00S 60°24' W 043°12'1515.0 974.2 -3.8 1.2
2015-Feb-27 11:00S 60°12' W 043°30'2311.7 975.0 -4.6 2.4
2015-Feb-27 09:00S 59°54' W 044°00'1110.9 975.4 -5.0-0.1
2015-Feb-27 08:00S 59°48' W 044°18'2612.8 975.2 -5.2 1.4
2015-Feb-27 06:00S 59°30' W 044°54'9 8.6 976.3 -5.2 1.5
2015-Feb-27 05:00S 59°24' W 045°06'1111.0 976.7 -5.3 2.0
2015-Feb-27 04:00S 59°18' W 045°24'9710.8 976.6 -4.8 0.5
2015-Feb-26 19:00S 58°06' W 047°30'1111.3 978.8 -0.6-8.6
2015-Feb-26 18:00S 58°00' W 047°48'2211.0 978.8 -0.1-9.3
2015-Feb-26 16:00S 57°42' W 048°12'1111.3 978.5 0.4-4.4
2015-Feb-26 15:00S 57°36' W 048°30'2211.1 978.3 1.2-1.5
2015-Feb-26 13:00S 57°18' W 048°54'1111.4 979.6 1.9-0.0
2015-Feb-26 12:00S 57°12' W 049°12'9 8.9 980.6 2.6 0.7
2015-Feb-26 11:00S 57°06' W 049°24'1515.5 981.7 2.5 1.0
2015-Feb-26 10:00S 56°54' W 049°42'9 8.9 982.8 2.9 1.1
2015-Feb-26 09:00S 56°48' W 049°54'1211.6 983.6 3.4 1.3
2015-Feb-26 08:00S 56°42' W 050°12'2412.2 984.7 2.7 1.4
2015-Feb-26 06:00S 56°24' W 050°42'1413.7 987.6 4.2 2.5
2015-Feb-26 05:00S 56°12' W 050°54'1211.7 989.4 4.4 2.5
2015-Feb-26 04:00S 56°06' W 051°12'9 9.0 990.8 4.4 2.3
2015-Feb-26 03:00S 56°00' W 051°24'2512.3 992.2 4.7 2.7
2015-Feb-26 01:00S 55°42' W 051°54'9 9.0 995.5 5.1 4.2
2015-Feb-26 00:00S 55°36' W 052°06'1615.7 997.3 4.8 4.2
2015-Feb-25 23:00S 55°24' W 052°24'1211.9 999.0 4.8 4.2
2015-Feb-25 22:00S 55°18' W 052°42'1413.8 1001.1 5.1 4.2
2015-Feb-25 21:00S 55°06' W 052°54'9 9.1 1002.7 5.4 4.0
2015-Feb-25 20:00S 55°00' W 053°06'1212.0 1004.2 5.3 3.9
2015-Feb-25 19:00S 54°54' W 053°24'1413.9 1005.7 5.1 3.6
2015-Feb-25 18:00S 54°42' W 053°36'2512.5 1007.3 4.5 3.3
2015-Feb-25 16:00S 54°24' W 054°06'9 9.2 1009.9 4.3 1.4
2015-Feb-25 15:00S 54°18' W 054°18'2311.4 1010.7 4.7 0.8
2015-Feb-25 13:00S 54°00' W 054°42'9 9.3 1012.3 5.3 1.2
2015-Feb-25 12:00S 53°54' W 054°54'2110.7 260 / 251012.5 5.4 4.0 5.1 0.7 6.9
2015-Feb-25 10:00S 53°42' W 055°24'1414.0 1013.9 4.9 1.2
2015-Feb-25 09:00S 53°30' W 055°36'19 9.3 1013.8 5.3 0.4
2015-Feb-25 07:00S 53°18' W 056°00'2512.7 1014.0 5.5-0.8
2015-Feb-25 05:00S 53°00' W 056°30'2311.6 1014.4 5.6-0.1
2015-Feb-25 03:00S 52°42' W 056°54'9 9.4 1015.0 5.5 0.5
2015-Feb-25 02:00S 52°36' W 057°06'9 9.4 1014.5 6.0 1.4
2015-Feb-25 01:00S 52°30' W 057°18'9 9.5 1014.3 6.4 1.1
2015-Feb-25 00:00S 52°24' W 057°30'2311.6 1014.1 6.6 1.1
2015-Feb-24 22:00S 52°06' W 057°54'10 9.5 1012.6 6.7 2.1
2015-Feb-24 21:00S 52°00' W 058°06'1312.6 1012.1 6.8 2.1
2015-Feb-24 20:00S 51°54' W 058°24'4 3.7 1011.7 7.8-0.2
2015-Feb-24 19:00S 51°54' W 058°30'0 0.0 1011.1 8.9-0.8
2015-Feb-24 18:00S 51°54' W 058°30'0 0.0 1010.3 7.1 1.6
2015-Feb-24 17:00S 51°54' W 058°30'0 0.0 1009.4 7.4-1.1
2015-Feb-24 16:00S 51°54' W 058°30'0 0.0 1008.2 7.6 0.8
2015-Feb-24 15:00S 51°54' W 058°30'0 0.0 1006.9 7.5 0.9
2015-Feb-24 13:00S 51°54' W 058°30'7 7.4 1005.0 6.1 2.9
2015-Feb-24 12:00S 51°54' W 058°18'7 7.4 1003.7 7.1-0.0
2015-Feb-24 11:00S 51°54' W 058°06'10 9.5 1002.2 6.9 1.3
2015-Feb-24 10:00S 51°48' W 057°54'7 7.4 1001.2 7.0 3.4
2015-Feb-24 09:00S 51°48' W 057°42'10 4.8 7.3 3.9
2015-Feb-24 07:00S 51°42' W 057°54'0 0.0 998.2 8.9 6.4
2015-Feb-24 06:00S 51°42' W 057°54'0 0.0 996.8 9.1 5.3
2015-Feb-24 05:00S 51°42' W 057°54'0 0.0 996.4 9.2 5.7
2015-Feb-24 04:00S 51°42' W 057°54'0 0.0 995.6 9.4 6.0
2015-Feb-24 03:00S 51°42' W 057°54'0 0.0 995.1 9.5 5.8
2015-Feb-24 02:00S 51°42' W 057°54'0 0.0 994.2 9.9 5.5
2015-Feb-24 01:00S 51°42' W 057°54'0 0.0 993.5 10.3 5.1
2015-Feb-24 00:00S 51°42' W 057°54'0 0.0 992.7 11.0 5.1
2015-Feb-23 23:00S 51°42' W 057°54'0 0.0 991.7 11.8 4.5
2015-Feb-23 22:00S 51°42' W 057°54'0 0.0 991.1 12.3 4.4
2015-Feb-23 21:00S 51°42' W 057°54'0 0.0 989.9 12.9 4.1
2015-Feb-23 20:00S 51°42' W 057°54'0 0.0 989.3 13.6 4.1
2015-Feb-23 19:00S 51°42' W 057°54'0 0.0 989.1 16.0 4.0
2015-Feb-23 18:00S 51°42' W 057°54'0 0.0 989.0 16.4 4.1
2015-Feb-23 17:00S 51°42' W 057°54'0 0.0 989.0 16.7 4.3
2015-Feb-23 16:00S 51°42' W 057°54'0 0.0 988.8 17.6 4.3
2015-Feb-23 15:00S 51°42' W 057°54'0 0.0 990.0 16.0 5.5
2015-Feb-23 14:00S 51°42' W 057°54'0 0.0 990.6 14.1 9.0
2015-Feb-23 13:00S 51°42' W 057°54'0 0.0 991.1 12.0 9.5
2015-Feb-23 12:00S 51°42' W 057°54'0 0.0 992.2 11.4 9.7
2015-Feb-23 10:00S 51°42' W 057°54'0 0.0 993.3 11.0 9.5
2015-Feb-23 09:00S 51°42' W 057°54'0 0.0 993.8 10.9 9.3
2015-Feb-23 08:00S 51°42' W 057°54'0 0.0 994.6 10.7 8.8
2015-Feb-23 07:00S 51°42' W 057°54'0 0.0 996.1 10.6 8.4
2015-Feb-23 06:00S 51°42' W 057°54'0 0.0 997.1 10.2 7.9
2015-Feb-23 05:00S 51°42' W 057°54'0 0.0 998.1 10.1 7.7
2015-Feb-23 04:00S 51°42' W 057°54'0 0.0 999.6 9.7 7.5
2015-Feb-23 03:00S 51°42' W 057°54'0 0.0 1001.0 9.4 6.7
2015-Feb-23 02:00S 51°42' W 057°54'0 0.0 1001.8 9.2 6.8
2015-Feb-23 01:00S 51°42' W 057°54'0 0.0 1002.7 9.9 5.8
2015-Feb-23 00:00S 51°42' W 057°54'0 0.0 1003.3 10.5 5.9
2015-Feb-22 23:00S 51°42' W 057°54'0 0.0 1003.6 11.1 6.0
2015-Feb-22 22:00S 51°42' W 057°54'0 0.0 1003.9 11.0 6.6
2015-Feb-22 21:00S 51°42' W 057°54'0 0.0 1004.5 10.8 6.0
2015-Feb-22 20:00S 51°42' W 057°54'0 0.0 1004.9 11.1 6.3
2015-Feb-22 19:00S 51°42' W 057°54'0 0.0 1005.0 10.7 5.7
2015-Feb-22 18:00S 51°42' W 057°54'0 0.0 1005.3 11.5 6.9
2015-Feb-22 17:00S 51°42' W 057°54'0 0.0 1005.7 10.3 5.8
2015-Feb-22 16:00S 51°42' W 057°54'0 0.0 1006.1 10.8 6.1
2015-Feb-22 15:00S 51°42' W 057°54'0 0.0 1006.7 13.5 6.1
2015-Feb-22 14:00S 51°42' W 057°54'0 0.0 1007.0 11.2 5.4
2015-Feb-22 13:00S 51°42' W 057°54'0 0.0 1007.2 10.7 4.8
2015-Feb-22 12:00S 51°42' W 057°54'4 1.9 1007.5 10.0 4.4
2015-Feb-22 10:00S 51°42' W 057°48'0 0.0 1007.4 7.3 4.8
2015-Feb-22 09:00S 51°42' W 057°48'0 0.0 1006.9 7.1 5.2
2015-Feb-22 07:00S 51°42' W 057°48'0 0.0 1006.8 7.9 5.1
2015-Feb-22 06:00S 51°42' W 057°48'0 0.0 1007.1 8.5 5.4
2015-Feb-22 05:00S 51°42' W 057°48'0 0.0 1007.7 8.6 6.2
2015-Feb-22 04:00S 51°42' W 057°48'0 0.0 1007.8 8.7 7.0
2015-Feb-22 03:00S 51°42' W 057°48'0 0.0 1008.1 8.7 6.9
2015-Feb-22 00:00S 51°42' W 057°48'0 0.0 1009.4 9.2 7.4
2015-Feb-21 23:00S 51°42' W 057°48'0 0.0 1009.7 9.2 6.9
2015-Feb-21 00:00S 51°42' W 057°48'0 0.0 1009.5 8.0 7.2
2015-Feb-20 23:00S 51°42' W 057°48'0 0.0 1008.5 10.4 8.2
2015-Feb-20 21:00S 51°42' W 057°48'0 0.0 1007.2 12.6 7.2
2015-Feb-20 20:00S 51°42' W 057°48'0 0.0 1006.9 12.7 6.8
2015-Feb-20 19:00S 51°42' W 057°48'0 0.0 1006.5 13.1 7.0
2015-Feb-20 17:00S 51°42' W 057°48'0 0.0 1006.7 12.6 8.6
2015-Feb-20 16:00S 51°42' W 057°48'0 0.0 1007.1 11.0 9.4
2015-Feb-20 12:00S 51°42' W 057°48'   1008.9 7.4 4.4
Track history (hours):
 
Tides and Currents Weather Stations Pressure Air Temp Water Temp Dewpoint Dewpoint Depression Visibility Wind Speed Wind Dir Waves Ship Positions

Oceanographic research ship Ernest Shackleton (UK/Norway)

Detailed information on ship capabilities available from University of Delaware's Ocean Information Center and ARCUS's ALIAS (Arctic Logistics Information and Support) project.

Last reported at 2015-Mar-02 01:00 UTC. Time now 2015-Mar-02 04:59 UTC.
Position S 65°30' W 026°30'.

Length 80 m; beam 17 m; draft 7.4 m.

Type: Other ship. MMSI: 740357000.

AWS

Barometer 957.6 mb
Air temperature -2.5 ° C
Dewpoint 1.1 ° C

Date/timePositionNaut miles runAvg speedWind from/ knotsBaromVisibWave heightAir tempDewpointWater temp
2015-Mar-02 01:00S 65°30' W 026°30'10 9.6 957.6 -2.5 1.1
2015-Mar-02 00:00S 65°24' W 026°48'2311.7 958.1 -2.3 1.1
2015-Mar-01 22:00S 65°06' W 027°24'10 9.7 958.2 -1.6 0.2
2015-Mar-01 21:00S 65°00' W 027°42'4310.7 958.1 -1.8 0.4
2015-Mar-01 17:00S 64°30' W 028°54'10 9.8 957.1 -2.3 1.2
2015-Mar-01 16:00S 64°24' W 029°12'10 9.8 957.2 -2.3-0.1
2015-Mar-01 15:00S 64°18' W 029°30'1414.3 957.6 -2.2-0.3
2015-Mar-01 14:00S 64°06' W 029°48'8 8.0 957.9 -2.3-0.4
2015-Mar-01 13:00S 64°00' W 030°00'28 9.3 958.2 -2.4-0.1
2015-Mar-01 10:00S 63°42' W 030°48'1010.0 958.7 -2.3-0.2
2015-Mar-01 09:00S 63°36' W 031°06'1010.0 959.0 -2.0-0.2
2015-Mar-01 08:00S 63°30' W 031°24'1010.0 959.4 -1.8 0.1
2015-Mar-01 07:00S 63°24' W 031°42'1010.1 959.4 -1.9 0.8
2015-Mar-01 06:00S 63°18' W 032°00'16 8.1 959.2 -2.1 0.7
2015-Mar-01 04:00S 63°06' W 032°24'1010.1 960.0 -2.6 1.0
2015-Mar-01 03:00S 63°00' W 032°42'5 5.4 960.8 -2.4 0.3
2015-Mar-01 02:00S 63°00' W 032°54'8 8.1 961.5 -2.3 0.4
2015-Mar-01 01:00S 62°54' W 033°06'8 8.1 962.5 -1.9-0.8
2015-Mar-01 00:00S 62°48' W 033°18'15 7.5 963.2 -1.8-0.9
2015-Feb-28 22:00S 62°42' W 033°48'8 8.1 963.6 -1.6-1.6
2015-Feb-28 21:00S 62°36' W 034°00'18 9.2 964.0 -1.6-1.1
2015-Feb-28 19:00S 62°24' W 034°30'8 8.2 964.6 -1.8 0.5
2015-Feb-28 18:00S 62°18' W 034°42'8 8.4 965.0 -2.0 1.1
2015-Feb-28 17:00S 62°18' W 035°00'1010.3 965.7 -1.9 0.4
2015-Feb-28 16:00S 62°12' W 035°18'16 8.2 966.3 -1.9 0.3
2015-Feb-28 14:00S 62°00' W 035°42'1010.4 967.9 -2.1 0.1
2015-Feb-28 13:00S 61°54' W 036°00'1212.3 968.5 -2.5 1.1
2015-Feb-28 12:00S 61°42' W 036°06'1111.4 969.2 -2.3 0.9
2015-Feb-28 11:00S 61°42' W 036°30'17 8.5 970.2 -2.2 0.6
2015-Feb-28 09:00S 61°42' W 037°06'1514.7 970.5 -2.1 0.8
2015-Feb-28 08:00S 61°30' W 037°24'1010.5 970.7 -2.0 0.7
2015-Feb-28 07:00S 61°36' W 037°42'8 8.3 971.2 -2.2 1.2
2015-Feb-28 06:00S 61°42' W 037°54'8 8.3 971.7 -2.3 1.2
2015-Feb-28 05:00S 61°48' W 038°06'26 6.4 972.2 -2.2 0.6
2015-Feb-28 01:00S 61°48' W 039°00'6112.1 973.5 -2.4 1.1
2015-Feb-27 20:00S 61°12' W 040°42'2110.6 969.8 -2.1-0.1
2015-Feb-27 18:00S 61°00' W 041°18'2411.8 970.0 -1.9-1.4
2015-Feb-27 16:00S 60°48' W 042°00'1110.6 971.2 -2.5-0.5
2015-Feb-27 15:00S 60°42' W 042°18'1110.7 971.7 -2.4-1.4
2015-Feb-27 14:00S 60°36' W 042°36'1110.7 972.6 -3.6 2.4
2015-Feb-27 13:00S 60°30' W 042°54'1110.7 973.2 -3.3 0.4
2015-Feb-27 12:00S 60°24' W 043°12'1515.0 974.2 -3.8 1.2
2015-Feb-27 11:00S 60°12' W 043°30'2311.7 975.0 -4.6 2.4
2015-Feb-27 09:00S 59°54' W 044°00'1110.9 975.4 -5.0-0.1
2015-Feb-27 08:00S 59°48' W 044°18'2612.8 975.2 -5.2 1.4
2015-Feb-27 06:00S 59°30' W 044°54'9 8.6 976.3 -5.2 1.5
2015-Feb-27 05:00S 59°24' W 045°06'1111.0 976.7 -5.3 2.0
2015-Feb-27 04:00S 59°18' W 045°24'9710.8 976.6 -4.8 0.5
2015-Feb-26 19:00S 58°06' W 047°30'1111.3 978.8 -0.6-8.6
2015-Feb-26 18:00S 58°00' W 047°48'2211.0 978.8 -0.1-9.3
2015-Feb-26 16:00S 57°42' W 048°12'1111.3 978.5 0.4-4.4
2015-Feb-26 15:00S 57°36' W 048°30'2211.1 978.3 1.2-1.5
2015-Feb-26 13:00S 57°18' W 048°54'1111.4 979.6 1.9-0.0
2015-Feb-26 12:00S 57°12' W 049°12'9 8.9 980.6 2.6 0.7
2015-Feb-26 11:00S 57°06' W 049°24'1515.5 981.7 2.5 1.0
2015-Feb-26 10:00S 56°54' W 049°42'9 8.9 982.8 2.9 1.1
2015-Feb-26 09:00S 56°48' W 049°54'1211.6 983.6 3.4 1.3
2015-Feb-26 08:00S 56°42' W 050°12'2412.2 984.7 2.7 1.4
2015-Feb-26 06:00S 56°24' W 050°42'1413.7 987.6 4.2 2.5
2015-Feb-26 05:00S 56°12' W 050°54'1211.7 989.4 4.4 2.5
2015-Feb-26 04:00S 56°06' W 051°12'9 9.0 990.8 4.4 2.3
2015-Feb-26 03:00S 56°00' W 051°24'2512.3 992.2 4.7 2.7
2015-Feb-26 01:00S 55°42' W 051°54'9 9.0 995.5 5.1 4.2
2015-Feb-26 00:00S 55°36' W 052°06'1615.7 997.3 4.8 4.2
2015-Feb-25 23:00S 55°24' W 052°24'1211.9 999.0 4.8 4.2
2015-Feb-25 22:00S 55°18' W 052°42'1413.8 1001.1 5.1 4.2
2015-Feb-25 21:00S 55°06' W 052°54'9 9.1 1002.7 5.4 4.0
2015-Feb-25 20:00S 55°00' W 053°06'1212.0 1004.2 5.3 3.9
2015-Feb-25 19:00S 54°54' W 053°24'1413.9 1005.7 5.1 3.6
2015-Feb-25 18:00S 54°42' W 053°36'2512.5 1007.3 4.5 3.3
2015-Feb-25 16:00S 54°24' W 054°06'9 9.2 1009.9 4.3 1.4
2015-Feb-25 15:00S 54°18' W 054°18'2311.4 1010.7 4.7 0.8
2015-Feb-25 13:00S 54°00' W 054°42'9 9.3 1012.3 5.3 1.2
2015-Feb-25 12:00S 53°54' W 054°54'2110.7 260 / 251012.5 5.4 4.0 5.1 0.7 6.9
2015-Feb-25 10:00S 53°42' W 055°24'1414.0 1013.9 4.9 1.2
2015-Feb-25 09:00S 53°30' W 055°36'19 9.3 1013.8 5.3 0.4
2015-Feb-25 07:00S 53°18' W 056°00'2512.7 1014.0 5.5-0.8
2015-Feb-25 05:00S 53°00' W 056°30'2311.6 1014.4 5.6-0.1
2015-Feb-25 03:00S 52°42' W 056°54'9 9.4 1015.0 5.5 0.5
2015-Feb-25 02:00S 52°36' W 057°06'9 9.4 1014.5 6.0 1.4
2015-Feb-25 01:00S 52°30' W 057°18'9 9.5 1014.3 6.4 1.1
2015-Feb-25 00:00S 52°24' W 057°30'2311.6 1014.1 6.6 1.1
2015-Feb-24 22:00S 52°06' W 057°54'10 9.5 1012.6 6.7 2.1
2015-Feb-24 21:00S 52°00' W 058°06'1312.6 1012.1 6.8 2.1
2015-Feb-24 20:00S 51°54' W 058°24'4 3.7 1011.7 7.8-0.2
2015-Feb-24 19:00S 51°54' W 058°30'0 0.0 1011.1 8.9-0.8
2015-Feb-24 18:00S 51°54' W 058°30'0 0.0 1010.3 7.1 1.6
2015-Feb-24 17:00S 51°54' W 058°30'0 0.0 1009.4 7.4-1.1
2015-Feb-24 16:00S 51°54' W 058°30'0 0.0 1008.2 7.6 0.8
2015-Feb-24 15:00S 51°54' W 058°30'0 0.0 1006.9 7.5 0.9
2015-Feb-24 13:00S 51°54' W 058°30'7 7.4 1005.0 6.1 2.9
2015-Feb-24 12:00S 51°54' W 058°18'7 7.4 1003.7 7.1-0.0
2015-Feb-24 11:00S 51°54' W 058°06'10 9.5 1002.2 6.9 1.3
2015-Feb-24 10:00S 51°48' W 057°54'7 7.4 1001.2 7.0 3.4
2015-Feb-24 09:00S 51°48' W 057°42'10 4.8 7.3 3.9
2015-Feb-24 07:00S 51°42' W 057°54'0 0.0 998.2 8.9 6.4
2015-Feb-24 06:00S 51°42' W 057°54'0 0.0 996.8 9.1 5.3
2015-Feb-24 05:00S 51°42' W 057°54'0 0.0 996.4 9.2 5.7
2015-Feb-24 04:00S 51°42' W 057°54'0 0.0 995.6 9.4 6.0
2015-Feb-24 03:00S 51°42' W 057°54'0 0.0 995.1 9.5 5.8
2015-Feb-24 02:00S 51°42' W 057°54'0 0.0 994.2 9.9 5.5
2015-Feb-24 01:00S 51°42' W 057°54'0 0.0 993.5 10.3 5.1
2015-Feb-24 00:00S 51°42' W 057°54'0 0.0 992.7 11.0 5.1
2015-Feb-23 23:00S 51°42' W 057°54'0 0.0 991.7 11.8 4.5
2015-Feb-23 22:00S 51°42' W 057°54'0 0.0 991.1 12.3 4.4
2015-Feb-23 21:00S 51°42' W 057°54'0 0.0 989.9 12.9 4.1
2015-Feb-23 20:00S 51°42' W 057°54'0 0.0 989.3 13.6 4.1
2015-Feb-23 19:00S 51°42' W 057°54'0 0.0 989.1 16.0 4.0
2015-Feb-23 18:00S 51°42' W 057°54'0 0.0 989.0 16.4 4.1
2015-Feb-23 17:00S 51°42' W 057°54'0 0.0 989.0 16.7 4.3
2015-Feb-23 16:00S 51°42' W 057°54'0 0.0 988.8 17.6 4.3
2015-Feb-23 15:00S 51°42' W 057°54'0 0.0 990.0 16.0 5.5
2015-Feb-23 14:00S 51°42' W 057°54'0 0.0 990.6 14.1 9.0
2015-Feb-23 13:00S 51°42' W 057°54'0 0.0 991.1 12.0 9.5
2015-Feb-23 12:00S 51°42' W 057°54'0 0.0 992.2 11.4 9.7
2015-Feb-23 10:00S 51°42' W 057°54'0 0.0 993.3 11.0 9.5
2015-Feb-23 09:00S 51°42' W 057°54'0 0.0 993.8 10.9 9.3
2015-Feb-23 08:00S 51°42' W 057°54'0 0.0 994.6 10.7 8.8
2015-Feb-23 07:00S 51°42' W 057°54'0 0.0 996.1 10.6 8.4
2015-Feb-23 06:00S 51°42' W 057°54'0 0.0 997.1 10.2 7.9
2015-Feb-23 05:00S 51°42' W 057°54'0 0.0 998.1 10.1 7.7
2015-Feb-23 04:00S 51°42' W 057°54'0 0.0 999.6 9.7 7.5
2015-Feb-23 03:00S 51°42' W 057°54'0 0.0 1001.0 9.4 6.7
2015-Feb-23 02:00S 51°42' W 057°54'0 0.0 1001.8 9.2 6.8
2015-Feb-23 01:00S 51°42' W 057°54'0 0.0 1002.7 9.9 5.8
2015-Feb-23 00:00S 51°42' W 057°54'0 0.0 1003.3 10.5 5.9
2015-Feb-22 23:00S 51°42' W 057°54'0 0.0 1003.6 11.1 6.0
2015-Feb-22 22:00S 51°42' W 057°54'0 0.0 1003.9 11.0 6.6
2015-Feb-22 21:00S 51°42' W 057°54'0 0.0 1004.5 10.8 6.0
2015-Feb-22 20:00S 51°42' W 057°54'0 0.0 1004.9 11.1 6.3
2015-Feb-22 19:00S 51°42' W 057°54'0 0.0 1005.0 10.7 5.7
2015-Feb-22 18:00S 51°42' W 057°54'0 0.0 1005.3 11.5 6.9
2015-Feb-22 17:00S 51°42' W 057°54'0 0.0 1005.7 10.3 5.8
2015-Feb-22 16:00S 51°42' W 057°54'0 0.0 1006.1 10.8 6.1
2015-Feb-22 15:00S 51°42' W 057°54'0 0.0 1006.7 13.5 6.1
2015-Feb-22 14:00S 51°42' W 057°54'0 0.0 1007.0 11.2 5.4
2015-Feb-22 13:00S 51°42' W 057°54'0 0.0 1007.2 10.7 4.8
2015-Feb-22 12:00S 51°42' W 057°54'4 1.9 1007.5 10.0 4.4
2015-Feb-22 10:00S 51°42' W 057°48'0 0.0 1007.4 7.3 4.8
2015-Feb-22 09:00S 51°42' W 057°48'0 0.0 1006.9 7.1 5.2
2015-Feb-22 07:00S 51°42' W 057°48'0 0.0 1006.8 7.9 5.1
2015-Feb-22 06:00S 51°42' W 057°48'0 0.0 1007.1 8.5 5.4
2015-Feb-22 05:00S 51°42' W 057°48'0 0.0 1007.7 8.6 6.2
2015-Feb-22 04:00S 51°42' W 057°48'0 0.0 1007.8 8.7 7.0
2015-Feb-22 03:00S 51°42' W 057°48'0 0.0 1008.1 8.7 6.9
2015-Feb-22 00:00S 51°42' W 057°48'0 0.0 1009.4 9.2 7.4
2015-Feb-21 23:00S 51°42' W 057°48'0 0.0 1009.7 9.2 6.9
2015-Feb-21 00:00S 51°42' W 057°48'0 0.0 1009.5 8.0 7.2
2015-Feb-20 23:00S 51°42' W 057°48'0 0.0 1008.5 10.4 8.2
2015-Feb-20 21:00S 51°42' W 057°48'0 0.0 1007.2 12.6 7.2
2015-Feb-20 20:00S 51°42' W 057°48'0 0.0 1006.9 12.7 6.8
2015-Feb-20 19:00S 51°42' W 057°48'0 0.0 1006.5 13.1 7.0
2015-Feb-20 17:00S 51°42' W 057°48'0 0.0 1006.7 12.6 8.6
2015-Feb-20 16:00S 51°42' W 057°48'0 0.0 1007.1 11.0 9.4
2015-Feb-20 12:00S 51°42' W 057°48'   1008.9 7.4 4.4

Dump ship's entire track history